createdAt,value
2022-10-17T00:01:07.149Z,100441.00
2022-10-17T00:03:35.781Z,100431.50
2022-10-17T00:06:07.092Z,100437.53
2022-10-17T00:08:34.905Z,100436.66
2022-10-17T00:11:06.519Z,100439.22
2022-10-17T00:13:34.630Z,100430.63
2022-10-17T00:16:02.435Z,100444.41
2022-10-17T00:18:31.547Z,100442.63
2022-10-17T00:20:59.098Z,100446.94
2022-10-17T00:23:27.473Z,100451.19
2022-10-17T00:26:02.041Z,100457.16
2022-10-17T00:28:29.677Z,100462.22
2022-10-17T00:30:58.241Z,100454.44
2022-10-17T00:33:25.989Z,100460.38
2022-10-17T00:36:03.656Z,100462.09
2022-10-17T00:38:31.274Z,100468.13
2022-10-17T00:40:59.342Z,100466.38
2022-10-17T00:43:27.500Z,100471.47
2022-10-17T00:45:55.267Z,100466.19
2022-10-17T00:48:25.450Z,100472.16
2022-10-17T00:50:53.167Z,100475.59
2022-10-17T00:53:22.056Z,100476.47
2022-10-17T00:55:52.099Z,100475.50
2022-10-17T00:58:21.951Z,100481.41
2022-10-17T01:00:49.588Z,100476.16
2022-10-17T01:03:17.593Z,100477.88
2022-10-17T01:05:45.289Z,100474.44
2022-10-17T01:08:13.895Z,100483.06
2022-10-17T01:10:50.452Z,100482.25
2022-10-17T01:13:26.042Z,100484.84
2022-10-17T01:16:05.104Z,100484.72
2022-10-17T01:18:47.011Z,100483.00
2022-10-17T01:21:39.094Z,100486.38
2022-10-17T01:24:36.048Z,100487.16
2022-10-17T01:27:43.255Z,100490.56
2022-10-17T01:30:35.192Z,100489.66
2022-10-17T01:33:11.754Z,100484.38
2022-10-17T01:35:45.756Z,100481.66
2022-10-17T01:38:19.517Z,100485.88
2022-10-17T01:40:51.920Z,100489.28
2022-10-17T01:43:24.579Z,100486.56
2022-10-17T01:45:58.875Z,100478.81
2022-10-17T01:48:35.228Z,100477.00
2022-10-17T01:51:09.773Z,100487.31
2022-10-17T01:53:42.443Z,100482.06
2022-10-17T01:56:14.150Z,100476.84
2022-10-17T01:58:47.225Z,100471.69
2022-10-17T02:01:15.110Z,100481.94
2022-10-17T02:03:47.697Z,100476.72
2022-10-17T02:06:15.232Z,100482.75
2022-10-17T02:08:44.827Z,100481.03
2022-10-17T02:11:15.793Z,100480.94
2022-10-17T02:13:56.549Z,100468.03
2022-10-17T02:16:35.333Z,100474.03
2022-10-17T02:19:18.461Z,100473.19
2022-10-17T02:21:52.209Z,100473.19
2022-10-17T02:24:26.595Z,100465.44
2022-10-17T02:27:01.783Z,100471.44
2022-10-17T02:29:34.139Z,100470.66
2022-10-17T02:32:07.573Z,100470.59
2022-10-17T02:34:41.832Z,100478.34
2022-10-17T02:37:12.377Z,100481.78
2022-10-17T02:39:42.031Z,100478.28
2022-10-17T02:42:14.784Z,100474.00
2022-10-17T02:44:45.283Z,100474.72
2022-10-17T02:47:22.946Z,100478.94
2022-10-17T02:49:55.567Z,100478.88
2022-10-17T02:52:28.719Z,100480.47
2022-10-17T02:55:03.044Z,100476.94
2022-10-17T02:57:35.187Z,100477.66
2022-10-17T03:00:07.499Z,100482.81
2022-10-17T03:02:40.881Z,100479.25
2022-10-17T03:05:13.420Z,100471.47
2022-10-17T03:07:40.989Z,100475.69
2022-10-17T03:10:09.074Z,100467.97
2022-10-17T03:12:37.496Z,100473.94
2022-10-17T03:15:06.189Z,100469.53
2022-10-17T03:17:34.261Z,100470.38
2022-10-17T03:20:01.996Z,100471.25
2022-10-17T03:22:32.480Z,100472.84
2022-10-17T03:25:02.141Z,100472.78
2022-10-17T03:27:30.306Z,100473.41
2022-10-17T03:29:58.091Z,100469.94
2022-10-17T03:32:25.710Z,100470.75
2022-10-17T03:34:53.251Z,100474.13
2022-10-17T03:37:21.472Z,100476.69
2022-10-17T03:39:51.728Z,100484.44
2022-10-17T03:42:19.400Z,100490.41
2022-10-17T03:44:47.052Z,100495.59
2022-10-17T03:47:14.606Z,100499.03
2022-10-17T03:49:42.813Z,100497.41
2022-10-17T03:52:12.428Z,100499.16
2022-10-17T03:54:40.110Z,100500.78
2022-10-17T03:57:09.150Z,100506.75
2022-10-17T03:59:37.271Z,100514.47
2022-10-17T04:02:10.512Z,100514.38
2022-10-17T04:04:38.161Z,100510.91
2022-10-17T04:07:06.107Z,100519.31
2022-10-17T04:09:36.970Z,100522.75
2022-10-17T04:12:10.833Z,100525.34
2022-10-17T04:14:39.079Z,100520.28
2022-10-17T04:17:06.649Z,100524.69
2022-10-17T04:19:35.655Z,100525.66
2022-10-17T04:22:03.944Z,100524.72
2022-10-17T04:24:35.037Z,100524.69
2022-10-17T04:27:22.461Z,100525.53
2022-10-17T04:29:50.054Z,100527.97
2022-10-17T04:32:22.631Z,100531.38
2022-10-17T04:35:10.452Z,100524.47
2022-10-17T04:37:40.459Z,100527.03
2022-10-17T04:40:13.752Z,100530.38
2022-10-17T04:42:42.998Z,100535.47
2022-10-17T04:45:14.056Z,100538.09
2022-10-17T04:47:42.566Z,100536.34
2022-10-17T04:50:10.654Z,100538.81
2022-10-17T04:52:39.950Z,100539.78
2022-10-17T04:55:09.287Z,100538.09
2022-10-17T04:57:37.330Z,100538.22
2022-10-17T05:00:17.003Z,100542.50
2022-10-17T05:02:56.063Z,100542.25
2022-10-17T05:05:23.564Z,100544.75
2022-10-17T05:07:53.976Z,100548.16
2022-10-17T05:10:25.701Z,100544.56
2022-10-17T05:12:54.777Z,100548.78
2022-10-17T05:15:26.101Z,100549.47
2022-10-17T05:17:56.106Z,100553.69
2022-10-17T05:20:24.653Z,100560.50
2022-10-17T05:22:52.297Z,100556.25
2022-10-17T05:25:21.287Z,100547.00
2022-10-17T05:27:48.830Z,100553.09
2022-10-17T05:30:16.613Z,100551.28
2022-10-17T05:32:46.267Z,100548.69
2022-10-17T05:35:14.053Z,100551.19
2022-10-17T05:37:42.277Z,100556.19
2022-10-17T05:40:11.553Z,100564.53
2022-10-17T05:45:09.983Z,100573.75
2022-10-17T05:47:37.578Z,100564.28
2022-10-17T05:50:07.915Z,100554.75
2022-10-17T05:52:54.068Z,100566.84
2022-10-17T05:55:23.776Z,100567.72
2022-10-17T05:57:52.694Z,100571.16
2022-10-17T06:00:21.596Z,100568.66
2022-10-17T06:02:56.574Z,100569.63
2022-10-17T06:05:26.384Z,100575.50
2022-10-17T06:07:57.038Z,100584.09
2022-10-17T06:10:27.875Z,100579.72
2022-10-17T06:12:56.587Z,100581.47
2022-10-17T06:15:24.240Z,100588.41
2022-10-17T06:17:58.173Z,100586.72
2022-10-17T06:20:27.283Z,100588.56
2022-10-17T06:22:54.898Z,100600.63
2022-10-17T06:25:36.568Z,100593.00
2022-10-17T06:28:04.730Z,100605.19
2022-10-17T06:30:32.473Z,100605.31
2022-10-17T06:33:00.010Z,100613.16
2022-10-17T06:35:28.863Z,100611.53
2022-10-17T06:37:57.753Z,100611.53
2022-10-17T06:40:25.841Z,100607.97
2022-10-17T06:42:53.516Z,100609.78
2022-10-17T06:45:26.351Z,100613.94
2022-10-17T06:48:10.122Z,100630.47
2022-10-17T06:50:46.280Z,100632.34
2022-10-17T06:53:18.021Z,100623.91
2022-10-17T06:55:53.026Z,100624.06
2022-10-17T06:58:43.889Z,100627.66
2022-10-17T07:01:24.099Z,100622.75
2022-10-17T07:03:55.834Z,100630.75
2022-10-17T07:06:25.425Z,100631.81
2022-10-17T07:08:55.584Z,100635.00
2022-10-17T07:11:23.735Z,100649.66
2022-10-17T07:13:54.088Z,100643.56
2022-10-17T07:16:23.084Z,100643.63
2022-10-17T07:18:58.529Z,100639.56
2022-10-17T07:21:27.448Z,100642.31
2022-10-17T07:23:55.300Z,100637.28
2022-10-17T07:26:23.121Z,100646.03
2022-10-17T07:28:54.122Z,100656.59
2022-10-17T07:31:48.735Z,100655.03
2022-10-17T07:34:16.421Z,100653.44
2022-10-17T07:36:46.812Z,100656.28
2022-10-17T07:39:15.878Z,100661.59
2022-10-17T07:41:43.380Z,100660.84
2022-10-17T07:44:11.512Z,100657.69
2022-10-17T07:46:44.848Z,100661.31
2022-10-17T07:49:12.682Z,100668.41
2022-10-17T07:51:41.512Z,100673.94
2022-10-17T07:54:10.429Z,100675.84
2022-10-17T07:56:38.202Z,100662.28
2022-10-17T07:59:08.494Z,100675.44
2022-10-17T08:01:37.850Z,100659.94
2022-10-17T08:04:05.357Z,100671.28
2022-10-17T08:06:32.896Z,100658.53
2022-10-17T08:09:01.514Z,100680.28
2022-10-17T08:11:30.415Z,100665.91
2022-10-17T08:13:57.952Z,100686.09
2022-10-17T08:16:25.486Z,100663.88
2022-10-17T08:18:52.983Z,100693.59
2022-10-17T08:21:20.776Z,100674.75
2022-10-17T08:23:48.314Z,100679.38
2022-10-17T08:26:17.181Z,100677.94
2022-10-17T08:28:46.147Z,100684.28
2022-10-17T08:31:15.700Z,100668.97
2022-10-17T08:33:43.689Z,100684.88
2022-10-17T08:36:14.148Z,100677.44
2022-10-17T08:38:43.624Z,100682.06
2022-10-17T08:41:21.105Z,100678.03
2022-10-17T08:44:11.912Z,100675.69
2022-10-17T08:46:43.245Z,100677.63
2022-10-17T08:49:14.613Z,100681.41
2022-10-17T08:51:48.971Z,100685.91
2022-10-17T08:54:21.393Z,100685.25
2022-10-17T08:56:51.050Z,100694.09
2022-10-17T08:59:24.380Z,100687.28
2022-10-17T09:01:58.056Z,100692.69
2022-10-17T09:04:47.035Z,100679.81
2022-10-17T09:07:22.985Z,100680.84
2022-10-17T09:10:00.056Z,100676.56
2022-10-17T09:12:37.427Z,100668.88
2022-10-17T09:15:32.704Z,100668.03
2022-10-17T09:18:04.285Z,100677.63
2022-10-17T09:20:35.228Z,100672.41
2022-10-17T09:23:11.152Z,100668.94
2022-10-17T09:25:44.804Z,100672.41
2022-10-17T09:28:18.890Z,100681.94
2022-10-17T09:30:52.660Z,100687.09
2022-10-17T09:33:34.562Z,100694.03
2022-10-17T09:36:06.140Z,100694.84
2022-10-17T09:38:40.083Z,100686.03
2022-10-17T09:41:42.800Z,100694.63
2022-10-17T09:44:15.326Z,100691.03
2022-10-17T09:46:55.674Z,100684.06
2022-10-17T09:49:30.170Z,100692.69
2022-10-17T09:51:58.325Z,100682.94
2022-10-17T09:54:29.938Z,100685.44
2022-10-17T09:56:59.507Z,100689.78
2022-10-17T09:59:35.248Z,100695.78
2022-10-17T10:02:16.968Z,100697.31
2022-10-17T10:05:09.560Z,100696.28
2022-10-17T10:07:39.291Z,100700.47
2022-10-17T10:10:23.750Z,100695.03
2022-10-17T10:13:04.746Z,100699.91
2022-10-17T10:15:35.819Z,100704.75
2022-10-17T10:18:04.864Z,100707.84
2022-10-17T10:20:35.545Z,100700.44
2022-10-17T10:23:14.261Z,100696.63
2022-10-17T10:25:53.558Z,100690.06
2022-10-17T10:28:23.408Z,100695.81
2022-10-17T10:30:52.723Z,100698.81
2022-10-17T10:33:23.892Z,100700.44
2022-10-17T10:36:01.133Z,100708.16
2022-10-17T10:38:29.214Z,100708.97
2022-10-17T10:40:58.485Z,100710.38
2022-10-17T10:43:33.901Z,100704.25
2022-10-17T10:46:01.952Z,100706.34
2022-10-17T10:48:35.146Z,100696.59
2022-10-17T10:51:06.549Z,100700.50
2022-10-17T10:53:42.636Z,100696.25
2022-10-17T10:56:17.639Z,100702.06
2022-10-17T10:58:56.091Z,100702.13
2022-10-17T11:01:32.458Z,100696.91
2022-10-17T11:04:20.517Z,100698.88
2022-10-17T11:06:51.510Z,100698.50
2022-10-17T11:09:33.766Z,100698.13
2022-10-17T11:12:06.279Z,100694.19
2022-10-17T11:14:43.254Z,100691.63
2022-10-17T11:17:22.660Z,100702.41
2022-10-17T11:20:00.383Z,100697.00
2022-10-17T11:22:32.177Z,100701.97
2022-10-17T11:25:04.952Z,100705.78
2022-10-17T11:27:34.955Z,100704.25
2022-10-17T11:30:03.527Z,100718.28
2022-10-17T11:32:38.609Z,100710.63
2022-10-17T11:35:17.553Z,100713.38
2022-10-17T11:37:50.920Z,100719.97
2022-10-17T11:40:24.470Z,100721.41
2022-10-17T11:42:58.374Z,100708.66
2022-10-17T11:45:28.980Z,100716.81
2022-10-17T11:48:02.684Z,100716.59
2022-10-17T11:53:25.619Z,100722.38
2022-10-17T11:55:55.407Z,100724.69
2022-10-17T11:58:31.644Z,100728.59
2022-10-17T12:01:08.594Z,100725.72
2022-10-17T12:03:50.224Z,100725.59
2022-10-17T12:06:33.141Z,100713.13
2022-10-17T12:09:11.353Z,100723.34
2022-10-17T12:11:50.675Z,100719.56
2022-10-17T12:14:41.720Z,100719.03
2022-10-17T12:17:30.369Z,100728.97
2022-10-17T12:20:27.287Z,100729.41
2022-10-17T12:22:58.718Z,100724.00
2022-10-17T12:25:30.213Z,100718.88
2022-10-17T12:28:13.054Z,100719.50
2022-10-17T12:30:52.439Z,100710.88
2022-10-17T12:33:22.900Z,100711.22
2022-10-17T12:35:52.084Z,100715.00
2022-10-17T12:38:26.964Z,100703.38
2022-10-17T12:40:59.611Z,100714.88
2022-10-17T12:46:55.326Z,100704.94
2022-10-17T12:49:49.698Z,100703.53
2022-10-17T12:52:25.666Z,100702.97
2022-10-17T12:55:11.521Z,100691.19
2022-10-17T12:57:45.357Z,100695.69
2022-10-17T13:00:20.295Z,100701.22
2022-10-17T13:02:49.349Z,100707.75
2022-10-17T13:05:23.141Z,100698.97
2022-10-17T13:07:52.875Z,100709.19
2022-10-17T13:13:06.884Z,100707.25
2022-10-17T13:15:35.117Z,100708.31
2022-10-17T13:18:03.063Z,100703.63
2022-10-17T13:20:32.523Z,100706.81
2022-10-17T13:23:00.224Z,100688.72
2022-10-17T13:25:29.516Z,100699.09
2022-10-17T13:28:15.752Z,100699.44
2022-10-17T13:30:49.635Z,100693.41
2022-10-17T13:33:31.888Z,100686.00
2022-10-17T13:36:01.361Z,100679.38
2022-10-17T13:38:33.405Z,100697.78
2022-10-17T13:41:33.577Z,100693.88
2022-10-17T13:43:52.992Z,100699.41
2022-10-17T13:46:39.229Z,100700.25
2022-10-17T13:49:13.648Z,100702.75
2022-10-17T13:51:45.465Z,100698.09
2022-10-17T13:54:32.466Z,100712.13
2022-10-17T13:57:02.721Z,100706.38
2022-10-17T13:59:35.036Z,100722.69
2022-10-17T14:02:02.967Z,100712.91
2022-10-17T14:04:44.669Z,100716.34
2022-10-17T14:07:27.697Z,100721.53
2022-10-17T14:09:55.662Z,100714.91
2022-10-17T14:12:24.668Z,100718.81
2022-10-17T14:15:11.133Z,100716.03
2022-10-17T14:17:40.321Z,100714.75
2022-10-17T14:20:48.263Z,100710.19
2022-10-17T14:23:21.445Z,100717.72
2022-10-17T14:25:45.837Z,100716.09
2022-10-17T14:28:18.246Z,100711.53
2022-10-17T14:31:03.204Z,100718.00
2022-10-17T14:33:32.402Z,100718.47
2022-10-17T14:36:03.576Z,100721.50
2022-10-17T14:38:31.575Z,100714.66
2022-10-17T14:41:30.545Z,100710.88
2022-10-17T14:43:56.991Z,100712.50
2022-10-17T14:46:24.880Z,100713.66
2022-10-17T14:48:54.877Z,100701.34
2022-10-17T14:51:22.420Z,100702.75
2022-10-17T14:54:05.507Z,100702.22
2022-10-17T14:56:40.788Z,100703.34
2022-10-17T14:59:13.756Z,100706.63
2022-10-17T15:01:45.727Z,100708.94
2022-10-17T15:04:13.221Z,100709.56
2022-10-17T15:06:41.289Z,100703.06
2022-10-17T15:09:08.902Z,100714.81
2022-10-17T15:11:36.908Z,100716.97
2022-10-17T15:14:04.465Z,100711.97
2022-10-17T15:16:35.348Z,100712.13
2022-10-17T15:19:02.877Z,100715.44
2022-10-17T15:21:40.495Z,100722.63
2022-10-17T15:24:09.552Z,100728.31
2022-10-17T15:26:37.766Z,100726.66
2022-10-17T15:29:06.083Z,100726.94
2022-10-17T15:31:35.829Z,100730.38
2022-10-17T15:34:03.351Z,100734.06
2022-10-17T15:36:40.079Z,100745.06
2022-10-17T15:39:07.647Z,100741.38
2022-10-17T15:41:35.539Z,100737.94
2022-10-17T15:44:03.147Z,100746.16
2022-10-17T15:46:33.701Z,100743.09
2022-10-17T15:49:07.433Z,100741.44
2022-10-17T15:51:35.297Z,100737.47
2022-10-17T15:54:03.025Z,100739.09
2022-10-17T15:56:35.783Z,100739.56
2022-10-17T15:59:04.347Z,100739.56
2022-10-17T16:01:33.364Z,100746.91
2022-10-17T16:04:01.144Z,100742.06
2022-10-17T16:06:30.240Z,100741.03
2022-10-17T16:08:57.767Z,100750.44
2022-10-17T16:11:36.708Z,100755.50
2022-10-17T16:14:06.600Z,100751.69
2022-10-17T16:16:34.333Z,100752.25
2022-10-17T16:19:02.439Z,100759.75
2022-10-17T16:21:33.461Z,100767.84
2022-10-17T16:24:01.096Z,100759.28
2022-10-17T16:26:29.279Z,100759.72
2022-10-17T16:28:58.050Z,100767.81
2022-10-17T16:31:29.150Z,100759.34
2022-10-17T16:33:58.636Z,100764.75
2022-10-17T16:36:26.367Z,100772.03
2022-10-17T16:38:55.558Z,100768.75
2022-10-17T16:41:25.011Z,100774.25
2022-10-17T16:43:54.280Z,100774.38
2022-10-17T16:46:22.787Z,100778.91
2022-10-17T16:48:50.828Z,100783.34
2022-10-17T16:51:19.946Z,100781.69
2022-10-17T16:53:49.972Z,100781.81
2022-10-17T16:56:21.386Z,100786.25
2022-10-17T16:58:49.659Z,100788.97
2022-10-17T17:01:20.061Z,100795.13
2022-10-17T17:03:48.775Z,100790.75
2022-10-17T17:06:19.072Z,100796.88
2022-10-17T17:08:47.612Z,100801.22
2022-10-17T17:11:20.640Z,100801.25
2022-10-17T17:13:48.452Z,100803.03
2022-10-17T17:16:18.407Z,100803.91
2022-10-17T17:18:46.791Z,100802.19
2022-10-17T17:21:14.365Z,100798.69
2022-10-17T17:23:43.772Z,100806.50
2022-10-17T17:26:13.606Z,100806.47
2022-10-17T17:28:42.742Z,100809.94
2022-10-17T17:31:12.171Z,100811.66
2022-10-17T17:33:40.949Z,100816.84
2022-10-17T17:36:09.292Z,100823.78
2022-10-17T17:38:37.369Z,100833.34
2022-10-17T17:41:05.478Z,100825.50
2022-10-17T17:43:33.026Z,100818.47
2022-10-17T17:46:03.308Z,100818.41
2022-10-17T17:48:31.146Z,100833.16
2022-10-17T17:51:03.552Z,100828.72
2022-10-17T17:53:31.232Z,100822.59
2022-10-17T17:56:02.338Z,100828.63
2022-10-17T17:58:29.875Z,100831.16
2022-10-17T18:00:57.661Z,100844.16
2022-10-17T18:03:27.196Z,100845.88
2022-10-17T18:05:54.961Z,100846.69
2022-10-17T18:08:23.123Z,100853.63
2022-10-17T18:10:54.356Z,100853.59
2022-10-17T18:13:21.906Z,100859.66
2022-10-17T18:15:51.748Z,100855.31
2022-10-17T18:18:19.632Z,100855.31
2022-10-17T18:20:48.498Z,100858.78
2022-10-17T18:23:17.670Z,100863.09
2022-10-17T18:25:54.257Z,100856.09
2022-10-17T18:28:21.867Z,100852.59
2022-10-17T18:30:49.777Z,100854.38
2022-10-17T18:33:17.611Z,100859.56
2022-10-17T18:35:45.171Z,100861.28
2022-10-17T18:38:14.044Z,100863.88
2022-10-17T18:40:41.569Z,100873.38
2022-10-17T18:43:09.083Z,100874.25
2022-10-17T18:45:36.635Z,100866.41
2022-10-17T18:48:04.164Z,100875.06
2022-10-17T18:50:31.869Z,100877.63
2022-10-17T18:52:59.704Z,100867.16
2022-10-17T18:55:28.657Z,100859.34
2022-10-17T18:57:56.264Z,100860.06
2022-10-17T19:00:23.823Z,100854.00
2022-10-17T19:02:51.390Z,100841.75
2022-10-17T19:05:19.085Z,100850.25
2022-10-17T19:07:47.218Z,100846.72
2022-10-17T19:10:14.844Z,100856.25
2022-10-17T19:12:43.734Z,100860.53
2022-10-17T19:15:11.407Z,100856.16
2022-10-17T19:17:38.976Z,100852.69
2022-10-17T19:20:07.929Z,100850.88
2022-10-17T19:22:35.472Z,100850.88
2022-10-17T19:25:03.074Z,100845.63
2022-10-17T19:27:31.005Z,100848.16
2022-10-17T19:30:00.317Z,100848.09
2022-10-17T19:32:28.191Z,100845.47
2022-10-17T19:34:56.073Z,100853.28
2022-10-17T19:37:23.669Z,100854.09
2022-10-17T19:39:51.460Z,100851.50
2022-10-17T19:42:19.077Z,100843.69
2022-10-17T19:44:46.881Z,100851.47
2022-10-17T19:47:15.808Z,100865.31
2022-10-17T19:49:47.694Z,100854.81
2022-10-17T19:52:17.379Z,100848.75
2022-10-17T19:54:44.933Z,100845.22
2022-10-17T19:57:12.505Z,100859.81
2022-10-17T19:59:40.100Z,100862.31
2022-10-17T20:02:07.741Z,100856.22
2022-10-17T20:04:42.079Z,100848.44
2022-10-17T20:07:17.405Z,100848.38
2022-10-17T20:09:45.027Z,100856.13
2022-10-17T20:12:12.678Z,100852.63
2022-10-17T20:14:41.220Z,100852.63
2022-10-17T20:17:09.055Z,100856.88
2022-10-17T20:19:38.064Z,100864.66
2022-10-17T20:22:05.708Z,100862.00
2022-10-17T20:24:33.398Z,100857.59
2022-10-17T20:27:01.115Z,100859.25
2022-10-17T20:29:28.920Z,100860.88
2022-10-17T20:31:57.588Z,100860.81
2022-10-17T20:34:25.300Z,100866.00
2022-10-17T20:36:54.485Z,100867.72
2022-10-17T20:39:22.197Z,100862.47
2022-10-17T20:41:50.007Z,100867.59
2022-10-17T20:44:17.722Z,100862.28
2022-10-17T20:47:00.556Z,100870.00
2022-10-17T20:49:30.059Z,100869.13
2022-10-17T20:51:59.148Z,100865.59
2022-10-17T20:54:28.238Z,100867.28
2022-10-17T20:56:57.802Z,100870.69
2022-10-17T20:59:28.085Z,100868.94
2022-10-17T21:01:56.094Z,100866.28
2022-10-17T21:07:12.813Z,100880.84
2022-10-17T21:09:40.426Z,100880.88
2022-10-17T21:12:08.028Z,100879.13
2022-10-17T21:14:36.330Z,100884.31
2022-10-17T21:17:05.501Z,100882.56
2022-10-17T21:19:33.392Z,100883.38
2022-10-17T21:22:01.284Z,100878.97
2022-10-17T21:24:31.445Z,100882.41
2022-10-17T21:26:59.016Z,100882.31
2022-10-17T21:29:26.808Z,100880.47
2022-10-17T21:31:54.390Z,100887.28
2022-10-17T21:34:24.965Z,100889.00
2022-10-17T21:36:53.475Z,100887.19
2022-10-17T21:39:21.731Z,100887.19
2022-10-17T21:41:50.777Z,100888.03
2022-10-17T21:44:19.994Z,100881.03
2022-10-17T21:46:48.252Z,100880.19
2022-10-17T21:49:17.817Z,100881.06
2022-10-17T21:51:45.829Z,100884.56
2022-10-17T21:54:13.382Z,100885.38
2022-10-17T21:56:41.653Z,100874.97
2022-10-17T21:59:10.831Z,100876.72
2022-10-17T22:01:40.835Z,100874.91
2022-10-17T22:04:11.801Z,100879.31
2022-10-17T22:06:41.656Z,100871.50
2022-10-17T22:09:13.738Z,100881.84
2022-10-17T22:11:41.615Z,100876.59
2022-10-17T22:14:14.496Z,100873.03
2022-10-17T22:16:44.120Z,100877.28
2022-10-17T22:19:13.253Z,100867.72
2022-10-17T22:21:40.874Z,100869.47
2022-10-17T22:24:11.408Z,100869.38
2022-10-17T22:26:39.668Z,100867.53
2022-10-17T22:29:08.370Z,100867.53
2022-10-17T22:31:38.202Z,100864.94
2022-10-17T22:34:07.133Z,100861.50
2022-10-17T22:36:35.293Z,100865.81
2022-10-17T22:39:03.149Z,100864.88
2022-10-17T22:41:30.886Z,100867.47
2022-10-17T22:43:58.432Z,100861.38
2022-10-17T22:46:26.593Z,100868.28
2022-10-17T22:48:55.569Z,100864.84
2022-10-17T22:53:51.842Z,100869.06
2022-10-17T22:56:21.442Z,100855.13
2022-10-17T22:58:49.415Z,100865.59
2022-10-17T23:01:19.473Z,100864.66
2022-10-17T23:03:47.780Z,100865.47
2022-10-17T23:06:17.215Z,100864.63
2022-10-17T23:08:45.227Z,100853.28
2022-10-17T23:11:13.022Z,100853.22
2022-10-17T23:13:40.691Z,100847.16
2022-10-17T23:16:09.142Z,100840.97
2022-10-17T23:18:38.024Z,100844.41
2022-10-17T23:21:06.517Z,100839.16
2022-10-17T23:23:35.748Z,100834.84
2022-10-17T23:26:08.002Z,100840.88
2022-10-17T23:28:35.993Z,100833.94
2022-10-17T23:31:15.314Z,100835.66
2022-10-17T23:33:44.808Z,100840.91
2022-10-17T23:36:13.639Z,100837.41
2022-10-17T23:38:44.556Z,100842.59
2022-10-17T23:41:27.267Z,100833.06
2022-10-17T23:43:54.836Z,100830.47
2022-10-17T23:46:22.422Z,100834.78
2022-10-17T23:48:50.176Z,100839.97
2022-10-17T23:51:18.115Z,100839.13
2022-10-17T23:53:46.977Z,100835.66
2022-10-17T23:56:15.043Z,100835.66
2022-10-17T23:58:42.697Z,100838.28
